sensor_id;sensor_type;location;lat;lon;timestamp;pressure;altitude;pressure_sealevel;temperature;humidity
75008;BME280;63554;48.940;12.050;2023-08-12T00:01:18;97834.81;;;16.82;83.60
75008;BME280;63554;48.940;12.050;2023-08-12T00:05:22;97827.66;;;16.80;83.84
75008;BME280;63554;48.940;12.050;2023-08-12T00:09:25;97822.69;;;16.77;83.57
75008;BME280;63554;48.940;12.050;2023-08-12T00:13:29;97826.06;;;16.68;83.48
75008;BME280;63554;48.940;12.050;2023-08-12T00:17:33;97819.69;;;16.62;83.65
75008;BME280;63554;48.940;12.050;2023-08-12T00:21:36;97818.28;;;16.59;84.24
75008;BME280;63554;48.940;12.050;2023-08-12T00:25:38;97823.41;;;16.56;84.06
75008;BME280;63554;48.940;12.050;2023-08-12T00:29:43;97821.59;;;16.45;84.76
75008;BME280;63554;48.940;12.050;2023-08-12T00:33:45;97817.84;;;16.34;85.37
75008;BME280;63554;48.940;12.050;2023-08-12T00:37:48;97816.00;;;16.23;86.35
75008;BME280;63554;48.940;12.050;2023-08-12T00:41:51;97818.66;;;16.17;86.28
75008;BME280;63554;48.940;12.050;2023-08-12T00:45:55;97819.63;;;16.11;85.99
75008;BME280;63554;48.940;12.050;2023-08-12T00:49:58;97822.25;;;16.06;86.60
75008;BME280;63554;48.940;12.050;2023-08-12T00:54:02;97815.03;;;16.00;87.10
75008;BME280;63554;48.940;12.050;2023-08-12T00:58:06;97809.13;;;15.91;88.22
75008;BME280;63554;48.940;12.050;2023-08-12T01:02:11;97814.38;;;15.81;88.60
75008;BME280;63554;48.940;12.050;2023-08-12T01:06:14;97818.19;;;15.80;88.79
75008;BME280;63554;48.940;12.050;2023-08-12T01:10:17;97817.84;;;15.76;89.57
75008;BME280;63554;48.940;12.050;2023-08-12T01:14:23;97813.69;;;15.74;89.64
75008;BME280;63554;48.940;12.050;2023-08-12T01:18:29;97809.75;;;15.70;89.55
75008;BME280;63554;48.940;12.050;2023-08-12T01:22:34;97799.31;;;15.67;89.77
75008;BME280;63554;48.940;12.050;2023-08-12T01:26:42;97795.91;;;15.59;89.87
75008;BME280;63554;48.940;12.050;2023-08-12T01:30:49;97788.09;;;15.51;89.68
75008;BME280;63554;48.940;12.050;2023-08-12T01:35:01;97786.78;;;15.42;90.14
75008;BME280;63554;48.940;12.050;2023-08-12T01:39:06;97780.66;;;15.35;90.66
75008;BME280;63554;48.940;12.050;2023-08-12T01:43:12;97778.06;;;15.28;90.86
75008;BME280;63554;48.940;12.050;2023-08-12T01:47:15;97776.28;;;15.22;91.10
75008;BME280;63554;48.940;12.050;2023-08-12T01:51:18;97764.31;;;15.23;91.83
75008;BME280;63554;48.940;12.050;2023-08-12T01:55:21;97763.97;;;15.19;91.63
75008;BME280;63554;48.940;12.050;2023-08-12T01:59:25;97761.47;;;15.18;91.28
75008;BME280;63554;48.940;12.050;2023-08-12T02:03:28;97758.75;;;15.18;91.67
75008;BME280;63554;48.940;12.050;2023-08-12T02:07:30;97752.34;;;15.12;91.53
75008;BME280;63554;48.940;12.050;2023-08-12T02:11:33;97754.50;;;15.10;91.84
75008;BME280;63554;48.940;12.050;2023-08-12T02:15:38;97762.53;;;15.05;91.49
75008;BME280;63554;48.940;12.050;2023-08-12T02:19:41;97754.63;;;15.03;92.05
75008;BME280;63554;48.940;12.050;2023-08-12T02:23:44;97760.53;;;15.00;92.44
75008;BME280;63554;48.940;12.050;2023-08-12T02:27:46;97756.88;;;14.95;92.24
75008;BME280;63554;48.940;12.050;2023-08-12T02:31:50;97751.91;;;14.92;91.93
75008;BME280;63554;48.940;12.050;2023-08-12T02:35:53;97744.91;;;14.84;92.39
75008;BME280;63554;48.940;12.050;2023-08-12T02:39:57;97733.31;;;14.77;92.87
75008;BME280;63554;48.940;12.050;2023-08-12T02:43:59;97741.13;;;14.73;92.98
75008;BME280;63554;48.940;12.050;2023-08-12T02:48:05;97725.59;;;14.62;92.59
75008;BME280;63554;48.940;12.050;2023-08-12T02:52:07;97725.91;;;14.54;92.85
75008;BME280;63554;48.940;12.050;2023-08-12T02:56:11;97723.53;;;14.46;93.09
75008;BME280;63554;48.940;12.050;2023-08-12T03:00:14;97712.88;;;14.44;93.60
75008;BME280;63554;48.940;12.050;2023-08-12T03:04:18;97715.25;;;14.40;94.26
75008;BME280;63554;48.940;12.050;2023-08-12T03:08:21;97717.97;;;14.40;94.30
75008;BME280;63554;48.940;12.050;2023-08-12T03:12:24;97724.13;;;14.36;94.91
75008;BME280;63554;48.940;12.050;2023-08-12T03:16:27;97724.47;;;14.28;95.46
75008;BME280;63554;48.940;12.050;2023-08-12T03:20:31;97730.38;;;14.24;95.68
75008;BME280;63554;48.940;12.050;2023-08-12T03:24:33;97734.63;;;14.20;96.34
75008;BME280;63554;48.940;12.050;2023-08-12T03:28:36;97725.88;;;14.18;96.51
75008;BME280;63554;48.940;12.050;2023-08-12T03:32:39;97723.03;;;14.13;96.50
75008;BME280;63554;48.940;12.050;2023-08-12T03:36:43;97710.47;;;14.12;96.56
75008;BME280;63554;48.940;12.050;2023-08-12T03:40:47;97712.84;;;14.09;96.27
75008;BME280;63554;48.940;12.050;2023-08-12T03:44:50;97703.25;;;14.06;96.14
75008;BME280;63554;48.940;12.050;2023-08-12T03:48:52;97705.00;;;14.00;96.07
75008;BME280;63554;48.940;12.050;2023-08-12T03:52:57;97703.22;;;13.94;96.13
75008;BME280;63554;48.940;12.050;2023-08-12T03:56:59;97712.69;;;13.92;96.53
75008;BME280;63554;48.940;12.050;2023-08-12T04:01:02;97718.59;;;13.89;97.32
75008;BME280;63554;48.940;12.050;2023-08-12T04:05:05;97723.19;;;13.88;97.42
75008;BME280;63554;48.940;12.050;2023-08-12T04:09:09;97718.59;;;13.89;97.59
75008;BME280;63554;48.940;12.050;2023-08-12T04:13:12;97714.44;;;13.86;97.71
75008;BME280;63554;48.940;12.050;2023-08-12T04:17:15;97713.00;;;13.83;97.79
75008;BME280;63554;48.940;12.050;2023-08-12T04:21:18;97713.84;;;13.84;97.54
75008;BME280;63554;48.940;12.050;2023-08-12T04:25:22;97726.59;;;13.83;97.59
75008;BME280;63554;48.940;12.050;2023-08-12T04:29:25;97728.50;;;13.83;97.20
75008;BME280;63554;48.940;12.050;2023-08-12T04:33:27;97721.16;;;13.83;97.47
75008;BME280;63554;48.940;12.050;2023-08-12T04:37:30;97720.94;;;13.85;97.28
75008;BME280;63554;48.940;12.050;2023-08-12T04:41:35;97725.91;;;13.88;97.37
75008;BME280;63554;48.940;12.050;2023-08-12T04:45:39;97715.41;;;13.92;97.41
75008;BME280;63554;48.940;12.050;2023-08-12T04:49:42;97711.38;;;13.94;97.42
75008;BME280;63554;48.940;12.050;2023-08-12T04:53:45;97714.47;;;13.98;97.74
75008;BME280;63554;48.940;12.050;2023-08-12T04:57:49;97716.50;;;14.02;97.96
75008;BME280;63554;48.940;12.050;2023-08-12T05:01:51;97714.84;;;14.01;97.87
75008;BME280;63554;48.940;12.050;2023-08-12T05:06:05;97708.31;;;14.02;97.41
75008;BME280;63554;48.940;12.050;2023-08-12T05:10:08;97727.75;;;14.06;97.74
75008;BME280;63554;48.940;12.050;2023-08-12T05:14:13;97728.56;;;14.07;97.80
75008;BME280;63554;48.940;12.050;2023-08-12T05:18:15;97717.09;;;14.16;98.17
75008;BME280;63554;48.940;12.050;2023-08-12T05:22:18;97722.34;;;14.30;98.10
75008;BME280;63554;48.940;12.050;2023-08-12T05:26:21;97724.25;;;14.41;98.23
75008;BME280;63554;48.940;12.050;2023-08-12T05:30:25;97727.59;;;14.55;98.29
75008;BME280;63554;48.940;12.050;2023-08-12T05:34:28;97732.34;;;14.71;97.55
75008;BME280;63554;48.940;12.050;2023-08-12T05:38:30;97726.91;;;14.83;96.74
75008;BME280;63554;48.940;12.050;2023-08-12T05:42:33;97721.66;;;14.93;95.92
75008;BME280;63554;48.940;12.050;2023-08-12T05:46:37;97717.88;;;15.06;95.63
75008;BME280;63554;48.940;12.050;2023-08-12T05:50:40;97713.22;;;15.18;95.70
75008;BME280;63554;48.940;12.050;2023-08-12T05:54:43;97706.19;;;15.34;95.54
75008;BME280;63554;48.940;12.050;2023-08-12T05:58:45;97706.84;;;15.53;95.60
75008;BME280;63554;48.940;12.050;2023-08-12T06:02:49;97718.41;;;15.72;94.87
75008;BME280;63554;48.940;12.050;2023-08-12T06:06:53;97715.50;;;15.91;94.11
75008;BME280;63554;48.940;12.050;2023-08-12T06:10:56;97712.28;;;16.11;92.74
75008;BME280;63554;48.940;12.050;2023-08-12T06:14:58;97702.78;;;16.30;91.10
75008;BME280;63554;48.940;12.050;2023-08-12T06:19:04;97702.50;;;16.66;89.46
75008;BME280;63554;48.940;12.050;2023-08-12T06:23:06;97697.53;;;16.96;86.90
75008;BME280;63554;48.940;12.050;2023-08-12T06:27:09;97687.00;;;17.27;85.18
75008;BME280;63554;48.940;12.050;2023-08-12T06:31:12;97694.16;;;17.55;82.67
75008;BME280;63554;48.940;12.050;2023-08-12T06:35:16;97689.94;;;17.70;81.18
75008;BME280;63554;48.940;12.050;2023-08-12T06:39:19;97690.69;;;17.87;80.18
75008;BME280;63554;48.940;12.050;2023-08-12T06:43:22;97697.78;;;18.10;80.24
75008;BME280;63554;48.940;12.050;2023-08-12T06:47:24;97689.13;;;18.24;78.42
75008;BME280;63554;48.940;12.050;2023-08-12T06:51:29;97686.91;;;18.53;78.62
75008;BME280;63554;48.940;12.050;2023-08-12T06:55:32;97678.78;;;18.73;76.40
75008;BME280;63554;48.940;12.050;2023-08-12T06:59:34;97681.38;;;18.85;76.05
75008;BME280;63554;48.940;12.050;2023-08-12T07:03:37;97680.63;;;19.00;76.38
75008;BME280;63554;48.940;12.050;2023-08-12T07:07:41;97682.34;;;19.16;75.90
75008;BME280;63554;48.940;12.050;2023-08-12T07:11:44;97677.72;;;19.17;75.70
75008;BME280;63554;48.940;12.050;2023-08-12T07:15:47;97686.28;;;19.36;75.69
75008;BME280;63554;48.940;12.050;2023-08-12T07:19:50;97697.38;;;19.67;74.81
75008;BME280;63554;48.940;12.050;2023-08-12T07:23:54;97687.03;;;19.84;75.48
75008;BME280;63554;48.940;12.050;2023-08-12T07:28:05;97690.63;;;20.05;72.95
75008;BME280;63554;48.940;12.050;2023-08-12T07:32:08;97680.50;;;20.37;72.50
75008;BME280;63554;48.940;12.050;2023-08-12T07:36:11;97674.97;;;20.57;70.52
75008;BME280;63554;48.940;12.050;2023-08-12T07:40:16;97679.09;;;20.75;71.63
75008;BME280;63554;48.940;12.050;2023-08-12T07:44:19;97677.41;;;21.00;69.23
75008;BME280;63554;48.940;12.050;2023-08-12T07:48:22;97681.25;;;21.04;69.43
75008;BME280;63554;48.940;12.050;2023-08-12T07:52:25;97660.25;;;21.18;66.72
75008;BME280;63554;48.940;12.050;2023-08-12T07:56:29;97661.63;;;21.21;66.91
75008;BME280;63554;48.940;12.050;2023-08-12T08:00:32;97656.63;;;21.43;67.56
75008;BME280;63554;48.940;12.050;2023-08-12T08:04:35;97658.31;;;21.84;68.37
75008;BME280;63554;48.940;12.050;2023-08-12T08:08:38;97665.03;;;22.07;65.76
75008;BME280;63554;48.940;12.050;2023-08-12T08:12:42;97657.34;;;22.43;64.03
75008;BME280;63554;48.940;12.050;2023-08-12T08:16:45;97658.00;;;22.64;64.02
75008;BME280;63554;48.940;12.050;2023-08-12T08:20:47;97653.38;;;22.55;63.19
75008;BME280;63554;48.940;12.050;2023-08-12T08:24:50;97651.56;;;22.45;63.44
75008;BME280;63554;48.940;12.050;2023-08-12T08:28:54;97657.16;;;22.35;63.29
75008;BME280;63554;48.940;12.050;2023-08-12T08:32:57;97656.63;;;22.33;63.46
75008;BME280;63554;48.940;12.050;2023-08-12T08:37:00;97648.16;;;22.82;61.39
75008;BME280;63554;48.940;12.050;2023-08-12T08:41:05;97654.91;;;23.43;60.02
75008;BME280;63554;48.940;12.050;2023-08-12T08:45:12;97661.53;;;23.85;59.65
75008;BME280;63554;48.940;12.050;2023-08-12T08:49:15;97655.03;;;24.14;60.21
75008;BME280;63554;48.940;12.050;2023-08-12T08:53:19;97652.91;;;23.92;57.20
75008;BME280;63554;48.940;12.050;2023-08-12T08:57:22;97657.84;;;23.71;59.87
75008;BME280;63554;48.940;12.050;2023-08-12T09:01:45;97651.22;;;24.10;58.59
75008;BME280;63554;48.940;12.050;2023-08-12T09:05:49;97640.88;;;24.67;55.11
75008;BME280;63554;48.940;12.050;2023-08-12T09:09:54;97642.72;;;24.58;55.94
75008;BME280;63554;48.940;12.050;2023-08-12T09:13:59;97632.94;;;24.47;56.19
75008;BME280;63554;48.940;12.050;2023-08-12T09:18:05;97635.53;;;24.57;55.53
75008;BME280;63554;48.940;12.050;2023-08-12T09:22:09;97634.81;;;24.52;55.85
75008;BME280;63554;48.940;12.050;2023-08-12T09:26:16;97657.75;;;24.99;54.93
75008;BME280;63554;48.940;12.050;2023-08-12T09:30:20;97649.53;;;25.63;54.58
75008;BME280;63554;48.940;12.050;2023-08-12T09:34:25;97631.97;;;25.68;52.49
75008;BME280;63554;48.940;12.050;2023-08-12T09:38:27;97636.53;;;25.50;53.78
75008;BME280;63554;48.940;12.050;2023-08-12T09:42:30;97640.53;;;25.43;52.87
75008;BME280;63554;48.940;12.050;2023-08-12T09:46:33;97629.19;;;25.68;52.52
75008;BME280;63554;48.940;12.050;2023-08-12T09:50:37;97636.63;;;25.58;52.81
75008;BME280;63554;48.940;12.050;2023-08-12T09:54:41;97631.50;;;25.52;53.15
75008;BME280;63554;48.940;12.050;2023-08-12T09:58:47;97623.91;;;25.16;54.95
75008;BME280;63554;48.940;12.050;2023-08-12T10:02:52;97635.53;;;25.32;53.88
75008;BME280;63554;48.940;12.050;2023-08-12T10:06:56;97634.84;;;25.76;53.27
75008;BME280;63554;48.940;12.050;2023-08-12T10:10:59;97634.06;;;25.62;53.31
75008;BME280;63554;48.940;12.050;2023-08-12T10:15:14;97625.22;;;25.46;54.04
75008;BME280;63554;48.940;12.050;2023-08-12T10:19:17;97632.00;;;25.40;54.66
75008;BME280;63554;48.940;12.050;2023-08-12T10:23:24;97625.56;;;25.44;54.66
75008;BME280;63554;48.940;12.050;2023-08-12T10:27:27;97621.03;;;25.49;53.50
75008;BME280;63554;48.940;12.050;2023-08-12T10:31:30;97608.03;;;25.35;53.57
75008;BME280;63554;48.940;12.050;2023-08-12T10:35:43;97613.13;;;25.42;54.69
75008;BME280;63554;48.940;12.050;2023-08-12T10:39:47;97613.59;;;25.58;54.94
75008;BME280;63554;48.940;12.050;2023-08-12T10:43:55;97604.25;;;25.68;53.59
75008;BME280;63554;48.940;12.050;2023-08-12T10:48:11;97606.06;;;25.86;55.00
75008;BME280;63554;48.940;12.050;2023-08-12T10:52:26;97604.59;;;25.89;53.26
75008;BME280;63554;48.940;12.050;2023-08-12T10:56:31;97606.91;;;26.09;51.39
75008;BME280;63554;48.940;12.050;2023-08-12T11:00:35;97604.28;;;26.89;51.13
75008;BME280;63554;48.940;12.050;2023-08-12T11:04:38;97598.81;;;27.07;49.29
75008;BME280;63554;48.940;12.050;2023-08-12T11:08:46;97594.41;;;27.54;50.39
75008;BME280;63554;48.940;12.050;2023-08-12T11:12:56;97601.75;;;27.59;49.37
75008;BME280;63554;48.940;12.050;2023-08-12T11:16:59;97596.69;;;27.70;47.32
75008;BME280;63554;48.940;12.050;2023-08-12T11:21:03;97587.53;;;27.78;48.20
75008;BME280;63554;48.940;12.050;2023-08-12T11:25:07;97579.53;;;27.94;45.65
75008;BME280;63554;48.940;12.050;2023-08-12T11:29:12;97575.56;;;28.30;46.22
75008;BME280;63554;48.940;12.050;2023-08-12T11:33:16;97562.16;;;28.88;43.99
75008;BME280;63554;48.940;12.050;2023-08-12T11:37:20;97567.69;;;29.26;44.11
75008;BME280;63554;48.940;12.050;2023-08-12T11:41:22;97562.38;;;29.63;44.18
75008;BME280;63554;48.940;12.050;2023-08-12T11:45:27;97560.47;;;29.97;42.40
75008;BME280;63554;48.940;12.050;2023-08-12T11:49:29;97547.88;;;29.91;39.65
75008;BME280;63554;48.940;12.050;2023-08-12T11:53:32;97538.38;;;29.92;40.37
75008;BME280;63554;48.940;12.050;2023-08-12T11:57:35;97534.50;;;30.17;39.15
75008;BME280;63554;48.940;12.050;2023-08-12T12:01:40;97535.72;;;30.29;40.00
75008;BME280;63554;48.940;12.050;2023-08-12T12:05:50;97526.72;;;30.69;40.12
75008;BME280;63554;48.940;12.050;2023-08-12T12:09:57;97526.53;;;31.11;38.94
75008;BME280;63554;48.940;12.050;2023-08-12T12:14:02;97525.94;;;31.18;41.11
75008;BME280;63554;48.940;12.050;2023-08-12T12:18:10;97524.88;;;31.34;40.13
75008;BME280;63554;48.940;12.050;2023-08-12T12:22:13;97510.97;;;31.38;38.56
75008;BME280;63554;48.940;12.050;2023-08-12T12:26:16;97508.06;;;32.16;40.73
75008;BME280;63554;48.940;12.050;2023-08-12T12:30:19;97504.72;;;32.10;37.83
75008;BME280;63554;48.940;12.050;2023-08-12T12:34:23;97494.31;;;31.54;38.16
75008;BME280;63554;48.940;12.050;2023-08-12T12:38:26;97496.09;;;31.75;37.82
75008;BME280;63554;48.940;12.050;2023-08-12T12:42:28;97498.28;;;31.81;37.01
75008;BME280;63554;48.940;12.050;2023-08-12T12:46:31;97486.31;;;32.09;37.52
75008;BME280;63554;48.940;12.050;2023-08-12T12:50:35;97487.69;;;32.31;36.93
75008;BME280;63554;48.940;12.050;2023-08-12T12:54:39;97474.59;;;32.67;36.23
75008;BME280;63554;48.940;12.050;2023-08-12T12:58:42;97471.25;;;32.77;34.47
75008;BME280;63554;48.940;12.050;2023-08-12T13:02:44;97466.63;;;32.85;35.02
75008;BME280;63554;48.940;12.050;2023-08-12T13:06:48;97475.56;;;32.90;35.64
75008;BME280;63554;48.940;12.050;2023-08-12T13:10:51;97474.31;;;32.88;35.81
75008;BME280;63554;48.940;12.050;2023-08-12T13:14:54;97484.56;;;32.64;34.92
75008;BME280;63554;48.940;12.050;2023-08-12T13:18:57;97478.31;;;32.71;33.91
75008;BME280;63554;48.940;12.050;2023-08-12T13:23:01;97473.44;;;32.68;34.51
75008;BME280;63554;48.940;12.050;2023-08-12T13:27:04;97469.00;;;31.38;35.11
75008;BME280;63554;48.940;12.050;2023-08-12T13:31:07;97462.97;;;32.05;36.00
75008;BME280;63554;48.940;12.050;2023-08-12T13:35:10;97462.28;;;32.40;35.04
75008;BME280;63554;48.940;12.050;2023-08-12T13:39:14;97452.41;;;33.09;34.97
75008;BME280;63554;48.940;12.050;2023-08-12T13:43:17;97447.50;;;33.06;33.53
75008;BME280;63554;48.940;12.050;2023-08-12T13:47:19;97436.44;;;32.46;34.87
75008;BME280;63554;48.940;12.050;2023-08-12T13:51:22;97430.97;;;33.01;34.42
75008;BME280;63554;48.940;12.050;2023-08-12T13:55:26;97431.03;;;33.05;34.93
75008;BME280;63554;48.940;12.050;2023-08-12T13:59:29;97423.56;;;33.87;33.57
75008;BME280;63554;48.940;12.050;2023-08-12T14:03:32;97431.00;;;34.41;34.04
75008;BME280;63554;48.940;12.050;2023-08-12T14:07:35;97432.38;;;34.74;33.27
75008;BME280;63554;48.940;12.050;2023-08-12T14:11:39;97426.78;;;33.66;32.59
75008;BME280;63554;48.940;12.050;2023-08-12T14:15:42;97426.97;;;32.35;34.56
75008;BME280;63554;48.940;12.050;2023-08-12T14:19:48;97430.50;;;31.88;36.09
75008;BME280;63554;48.940;12.050;2023-08-12T14:23:51;97428.75;;;32.27;35.20
75008;BME280;63554;48.940;12.050;2023-08-12T14:27:55;97425.41;;;32.22;34.22
75008;BME280;63554;48.940;12.050;2023-08-12T14:31:58;97438.59;;;30.84;37.43
75008;BME280;63554;48.940;12.050;2023-08-12T14:36:01;97433.53;;;30.28;38.34
75008;BME280;63554;48.940;12.050;2023-08-12T14:40:05;97438.47;;;30.55;37.23
75008;BME280;63554;48.940;12.050;2023-08-12T14:44:11;97434.16;;;30.46;37.01
75008;BME280;63554;48.940;12.050;2023-08-12T14:48:14;97446.91;;;30.22;37.43
75008;BME280;63554;48.940;12.050;2023-08-12T14:52:19;97451.16;;;29.95;39.08
75008;BME280;63554;48.940;12.050;2023-08-12T14:56:22;97450.66;;;29.81;40.72
75008;BME280;63554;48.940;12.050;2023-08-12T15:00:26;97450.13;;;29.66;41.75
75008;BME280;63554;48.940;12.050;2023-08-12T15:04:29;97444.00;;;29.52;42.54
75008;BME280;63554;48.940;12.050;2023-08-12T15:08:32;97446.66;;;29.48;43.60
75008;BME280;63554;48.940;12.050;2023-08-12T15:12:35;97446.44;;;29.53;42.75
75008;BME280;63554;48.940;12.050;2023-08-12T15:16:39;97467.13;;;29.31;44.06
75008;BME280;63554;48.940;12.050;2023-08-12T15:20:42;97466.38;;;29.22;45.30
75008;BME280;63554;48.940;12.050;2023-08-12T15:24:45;97457.75;;;29.15;45.73
75008;BME280;63554;48.940;12.050;2023-08-12T15:28:47;97445.72;;;29.23;45.30
75008;BME280;63554;48.940;12.050;2023-08-12T15:32:51;97427.53;;;29.38;44.98
75008;BME280;63554;48.940;12.050;2023-08-12T15:36:54;97429.94;;;29.48;44.07
75008;BME280;63554;48.940;12.050;2023-08-12T15:40:57;97423.66;;;29.51;44.84
75008;BME280;63554;48.940;12.050;2023-08-12T15:45:00;97437.88;;;29.37;45.28
75008;BME280;63554;48.940;12.050;2023-08-12T15:49:06;97441.78;;;29.24;46.00
75008;BME280;63554;48.940;12.050;2023-08-12T15:53:12;97455.78;;;29.07;46.69
75008;BME280;63554;48.940;12.050;2023-08-12T15:57:15;97449.88;;;28.87;47.07
75008;BME280;63554;48.940;12.050;2023-08-12T16:01:18;97499.53;;;28.47;49.13
75008;BME280;63554;48.940;12.050;2023-08-12T16:05:22;97546.19;;;27.10;51.82
75008;BME280;63554;48.940;12.050;2023-08-12T16:09:25;97536.69;;;25.41;56.49
75008;BME280;63554;48.940;12.050;2023-08-12T16:13:28;97529.75;;;21.69;67.31
75008;BME280;63554;48.940;12.050;2023-08-12T16:17:32;97455.97;;;22.48;62.68
75008;BME280;63554;48.940;12.050;2023-08-12T16:21:36;97450.09;;;22.93;66.06
75008;BME280;63554;48.940;12.050;2023-08-12T16:25:38;97456.28;;;22.85;71.98
75008;BME280;63554;48.940;12.050;2023-08-12T16:29:41;97475.56;;;22.47;73.86
75008;BME280;63554;48.940;12.050;2023-08-12T16:33:44;97498.50;;;21.84;77.18
75008;BME280;63554;48.940;12.050;2023-08-12T16:37:48;97476.59;;;21.68;78.88
75008;BME280;63554;48.940;12.050;2023-08-12T16:41:51;97482.78;;;21.84;81.64
75008;BME280;63554;48.940;12.050;2023-08-12T16:45:53;97472.72;;;21.99;80.80
75008;BME280;63554;48.940;12.050;2023-08-12T16:49:56;97466.88;;;23.21;81.73
75008;BME280;63554;48.940;12.050;2023-08-12T16:54:00;97484.22;;;23.78;77.93
75008;BME280;63554;48.940;12.050;2023-08-12T16:58:03;97488.81;;;23.83;77.61
75008;BME280;63554;48.940;12.050;2023-08-12T17:02:07;97498.78;;;23.65;77.80
75008;BME280;63554;48.940;12.050;2023-08-12T17:06:09;97506.41;;;23.16;76.96
75008;BME280;63554;48.940;12.050;2023-08-12T17:10:13;97526.28;;;22.94;78.73
75008;BME280;63554;48.940;12.050;2023-08-12T17:14:16;97528.31;;;22.64;79.42
75008;BME280;63554;48.940;12.050;2023-08-12T17:18:19;97542.34;;;22.68;81.55
75008;BME280;63554;48.940;12.050;2023-08-12T17:22:21;97540.81;;;22.33;80.85
75008;BME280;63554;48.940;12.050;2023-08-12T17:26:26;97546.41;;;21.88;82.51
75008;BME280;63554;48.940;12.050;2023-08-12T17:30:28;97549.00;;;21.74;83.82
75008;BME280;63554;48.940;12.050;2023-08-12T17:34:31;97546.31;;;21.98;82.59
75008;BME280;63554;48.940;12.050;2023-08-12T17:38:34;97552.06;;;21.67;83.37
75008;BME280;63554;48.940;12.050;2023-08-12T17:42:38;97552.94;;;21.63;84.65
75008;BME280;63554;48.940;12.050;2023-08-12T17:46:41;97544.72;;;21.58;84.14
75008;BME280;63554;48.940;12.050;2023-08-12T17:50:45;97553.03;;;21.52;84.77
75008;BME280;63554;48.940;12.050;2023-08-12T17:54:48;97550.88;;;21.39;83.62
75008;BME280;63554;48.940;12.050;2023-08-12T17:58:52;97556.44;;;21.29;84.87
75008;BME280;63554;48.940;12.050;2023-08-12T18:02:54;97572.75;;;21.15;85.21
75008;BME280;63554;48.940;12.050;2023-08-12T18:06:57;97561.50;;;21.06;89.01
75008;BME280;63554;48.940;12.050;2023-08-12T18:11:01;97564.31;;;20.91;87.15
75008;BME280;63554;48.940;12.050;2023-08-12T18:15:06;97565.19;;;20.86;90.32
75008;BME280;63554;48.940;12.050;2023-08-12T18:19:09;97561.34;;;20.77;90.38
75008;BME280;63554;48.940;12.050;2023-08-12T18:23:11;97561.66;;;20.70;91.84
75008;BME280;63554;48.940;12.050;2023-08-12T18:27:14;97546.84;;;20.61;92.90
75008;BME280;63554;48.940;12.050;2023-08-12T18:31:19;97558.38;;;20.53;93.40
75008;BME280;63554;48.940;12.050;2023-08-12T18:35:21;97548.78;;;20.40;94.83
75008;BME280;63554;48.940;12.050;2023-08-12T18:39:24;97555.66;;;20.32;94.41
75008;BME280;63554;48.940;12.050;2023-08-12T18:43:27;97556.78;;;20.26;94.91
75008;BME280;63554;48.940;12.050;2023-08-12T18:47:31;97556.53;;;20.18;94.72
75008;BME280;63554;48.940;12.050;2023-08-12T18:51:35;97558.44;;;20.07;95.13
75008;BME280;63554;48.940;12.050;2023-08-12T18:55:38;97556.53;;;20.02;96.69
75008;BME280;63554;48.940;12.050;2023-08-12T18:59:40;97555.97;;;19.95;96.62
75008;BME280;63554;48.940;12.050;2023-08-12T19:03:44;97557.38;;;19.92;98.20
75008;BME280;63554;48.940;12.050;2023-08-12T19:07:47;97573.59;;;19.84;98.42
75008;BME280;63554;48.940;12.050;2023-08-12T19:11:51;97559.00;;;19.73;98.75
75008;BME280;63554;48.940;12.050;2023-08-12T19:15:55;97555.13;;;19.69;99.87
75008;BME280;63554;48.940;12.050;2023-08-12T19:20:00;97552.94;;;19.66;99.70
75008;BME280;63554;48.940;12.050;2023-08-12T19:24:03;97554.88;;;19.60;99.67
75008;BME280;63554;48.940;12.050;2023-08-12T19:28:06;97562.28;;;19.54;99.59
75008;BME280;63554;48.940;12.050;2023-08-12T19:32:09;97569.94;;;19.47;100.00
75008;BME280;63554;48.940;12.050;2023-08-12T19:36:13;97581.69;;;19.32;100.00
75008;BME280;63554;48.940;12.050;2023-08-12T19:40:16;97589.34;;;19.20;100.00
75008;BME280;63554;48.940;12.050;2023-08-12T19:44:19;97611.88;;;19.17;100.00
75008;BME280;63554;48.940;12.050;2023-08-12T19:48:22;97608.28;;;19.11;100.00
75008;BME280;63554;48.940;12.050;2023-08-12T19:52:26;97610.41;;;18.99;100.00
75008;BME280;63554;48.940;12.050;2023-08-12T19:56:29;97588.44;;;18.99;100.00
75008;BME280;63554;48.940;12.050;2023-08-12T20:00:32;97588.75;;;19.03;100.00
75008;BME280;63554;48.940;12.050;2023-08-12T20:04:35;97608.53;;;19.10;100.00
75008;BME280;63554;48.940;12.050;2023-08-12T20:08:39;97616.22;;;19.08;100.00
75008;BME280;63554;48.940;12.050;2023-08-12T20:12:42;97620.03;;;19.02;100.00
75008;BME280;63554;48.940;12.050;2023-08-12T20:16:45;97608.44;;;18.84;100.00
75008;BME280;63554;48.940;12.050;2023-08-12T20:20:48;97608.13;;;18.81;100.00
75008;BME280;63554;48.940;12.050;2023-08-12T20:24:52;97614.91;;;18.73;100.00
75008;BME280;63554;48.940;12.050;2023-08-12T20:28:55;97626.69;;;18.68;100.00
75008;BME280;63554;48.940;12.050;2023-08-12T20:32:58;97632.69;;;18.65;100.00
75008;BME280;63554;48.940;12.050;2023-08-12T20:37:01;97633.78;;;18.64;100.00
75008;BME280;63554;48.940;12.050;2023-08-12T20:41:05;97640.41;;;18.68;100.00
75008;BME280;63554;48.940;12.050;2023-08-12T20:45:08;97630.00;;;18.70;100.00
75008;BME280;63554;48.940;12.050;2023-08-12T20:49:11;97644.78;;;18.69;100.00
75008;BME280;63554;48.940;12.050;2023-08-12T20:53:14;97640.41;;;18.68;100.00
75008;BME280;63554;48.940;12.050;2023-08-12T20:57:18;97640.41;;;18.68;100.00
75008;BME280;63554;48.940;12.050;2023-08-12T21:01:21;97642.84;;;18.70;100.00
75008;BME280;63554;48.940;12.050;2023-08-12T21:05:25;97649.75;;;18.72;100.00
75008;BME280;63554;48.940;12.050;2023-08-12T21:09:28;97648.63;;;18.73;100.00
75008;BME280;63554;48.940;12.050;2023-08-12T21:13:32;97656.84;;;18.73;100.00